createdAt,value
2023-01-30T00:00:23.879Z,36.70
2023-01-30T00:01:23.697Z,41.60
2023-01-30T00:02:23.744Z,38.60
2023-01-30T00:03:23.674Z,39.30
2023-01-30T00:04:23.672Z,45.90
2023-01-30T00:05:23.723Z,40.70
2023-01-30T00:06:23.639Z,35.10
2023-01-30T00:07:23.655Z,44.40
2023-01-30T00:08:23.602Z,50.50
2023-01-30T00:09:23.599Z,49.70
2023-01-30T00:10:26.028Z,43.70
2023-01-30T00:11:23.584Z,42.70
2023-01-30T00:12:23.551Z,42.40
2023-01-30T00:13:23.720Z,37.20
2023-01-30T00:14:23.530Z,42.60
2023-01-30T00:15:23.519Z,36.90
2023-01-30T00:16:23.545Z,40.20
2023-01-30T00:17:23.491Z,38.30
2023-01-30T00:18:23.667Z,38.80
2023-01-30T00:19:23.498Z,36.90
2023-01-30T00:20:23.620Z,45.10
2023-01-30T00:21:23.458Z,36.70
2023-01-30T00:22:23.443Z,35.30
2023-01-30T00:23:23.608Z,45.40
2023-01-30T00:24:23.472Z,37.40
2023-01-30T00:25:23.544Z,36.80
2023-01-30T00:26:23.428Z,47.70
2023-01-30T00:27:23.374Z,42.50
2023-01-30T00:28:23.538Z,37.60
2023-01-30T00:29:23.356Z,41.30
2023-01-30T00:30:23.365Z,40.30
2023-01-30T00:31:23.376Z,42.20
2023-01-30T00:32:23.486Z,35.80
2023-01-30T00:33:23.296Z,41.60
2023-01-30T00:34:23.284Z,41.40
2023-01-30T00:35:23.255Z,34.00
2023-01-30T00:36:23.254Z,39.50
2023-01-30T00:37:23.437Z,33.80
2023-01-30T00:38:23.256Z,42.50
2023-01-30T00:39:23.221Z,36.50
2023-01-30T00:40:23.205Z,41.50
2023-01-30T00:41:23.188Z,37.80
2023-01-30T00:42:23.194Z,39.90
2023-01-30T00:43:23.175Z,41.90
2023-01-30T00:44:23.161Z,37.40
2023-01-30T00:45:23.134Z,37.80
2023-01-30T00:46:23.123Z,41.60
2023-01-30T00:47:23.118Z,43.10
2023-01-30T00:48:23.133Z,37.20
2023-01-30T00:49:23.083Z,43.00
2023-01-30T00:50:23.072Z,34.60
2023-01-30T00:51:23.067Z,35.00
2023-01-30T00:52:23.049Z,36.40
2023-01-30T00:53:23.039Z,41.40
2023-01-30T00:54:23.206Z,39.20
2023-01-30T00:55:23.011Z,38.70
2023-01-30T00:56:22.999Z,42.20
2023-01-30T00:57:22.999Z,38.00
2023-01-30T00:58:22.972Z,41.10
2023-01-30T00:59:23.167Z,39.80
2023-01-30T01:00:22.941Z,39.10
2023-01-30T01:01:22.982Z,36.30
2023-01-30T01:02:22.925Z,38.70
2023-01-30T01:03:22.986Z,37.20
2023-01-30T01:04:23.068Z,37.80
2023-01-30T01:05:22.899Z,40.50
2023-01-30T01:06:23.050Z,38.20
2023-01-30T01:07:22.857Z,41.50
2023-01-30T01:08:22.849Z,39.00
2023-01-30T01:09:23.020Z,39.40
2023-01-30T01:10:22.816Z,41.70
2023-01-30T01:11:22.809Z,37.30
2023-01-30T01:12:22.785Z,44.40
2023-01-30T01:13:22.796Z,44.50
2023-01-30T01:14:22.945Z,37.00
2023-01-30T01:15:22.763Z,40.80
2023-01-30T01:16:22.788Z,42.20
2023-01-30T01:17:22.737Z,40.70
2023-01-30T01:18:22.725Z,40.30
2023-01-30T01:19:22.888Z,43.10
2023-01-30T01:20:22.695Z,38.40
2023-01-30T01:21:22.694Z,35.60
2023-01-30T01:22:22.674Z,41.30
2023-01-30T01:23:22.661Z,45.40
2023-01-30T01:24:22.823Z,42.30
2023-01-30T01:25:22.631Z,39.00
2023-01-30T01:26:22.847Z,40.70
2023-01-30T01:27:22.612Z,36.10
2023-01-30T01:28:22.616Z,45.30
2023-01-30T01:29:22.623Z,46.20
2023-01-30T01:30:22.591Z,40.10
2023-01-30T01:31:22.894Z,43.90
2023-01-30T01:32:22.554Z,44.30
2023-01-30T01:33:22.530Z,37.40
2023-01-30T01:34:22.514Z,35.30
2023-01-30T01:35:22.530Z,39.90
2023-01-30T01:36:52.066Z,41.10
2023-01-30T01:37:23.479Z,40.80
2023-01-30T01:38:22.465Z,39.70
2023-01-30T01:39:22.463Z,32.00
2023-01-30T01:40:22.443Z,35.60
2023-01-30T01:41:22.459Z,39.10
2023-01-30T01:42:22.434Z,31.60
2023-01-30T01:43:22.436Z,36.70
2023-01-30T01:44:22.379Z,39.30
2023-01-30T01:45:22.377Z,44.50
2023-01-30T01:46:22.365Z,34.70
2023-01-30T01:47:22.537Z,35.20
2023-01-30T01:48:22.528Z,33.30
2023-01-30T01:49:22.368Z,38.50
2023-01-30T01:50:22.327Z,34.70
2023-01-30T01:51:22.326Z,33.30
2023-01-30T01:52:22.458Z,41.90
2023-01-30T01:53:22.276Z,37.10
2023-01-30T01:54:22.268Z,37.90
2023-01-30T01:55:22.254Z,36.40
2023-01-30T01:56:22.245Z,39.80
2023-01-30T01:57:22.412Z,38.90
2023-01-30T01:58:22.211Z,35.60
2023-01-30T01:59:22.378Z,37.30
2023-01-30T02:00:22.196Z,40.70
2023-01-30T02:01:22.188Z,39.70
2023-01-30T02:02:22.271Z,39.60
2023-01-30T02:03:22.144Z,41.40
2023-01-30T02:04:22.315Z,32.80
2023-01-30T02:05:22.123Z,38.00
2023-01-30T02:06:22.104Z,40.50
2023-01-30T02:07:22.104Z,34.00
2023-01-30T02:08:22.084Z,39.10
2023-01-30T02:09:22.255Z,40.40
2023-01-30T02:10:22.053Z,41.10
2023-01-30T02:11:22.057Z,41.30
2023-01-30T02:12:22.031Z,35.10
2023-01-30T02:13:22.030Z,35.90
2023-01-30T02:14:22.221Z,32.70
2023-01-30T02:15:22.020Z,40.80
2023-01-30T02:16:21.983Z,35.00
2023-01-30T02:17:22.048Z,35.10
2023-01-30T02:18:21.966Z,36.80
2023-01-30T02:19:21.969Z,41.00
2023-01-30T02:20:21.929Z,40.10
2023-01-30T02:21:21.934Z,45.80
2023-01-30T02:22:21.902Z,41.20
2023-01-30T02:23:21.888Z,39.80
2023-01-30T02:24:21.897Z,37.30
2023-01-30T02:25:22.048Z,37.50
2023-01-30T02:26:21.911Z,35.60
2023-01-30T02:27:22.028Z,37.90
2023-01-30T02:28:21.837Z,37.40
2023-01-30T02:29:21.857Z,33.20
2023-01-30T02:30:21.913Z,40.30
2023-01-30T02:31:21.884Z,42.00
2023-01-30T02:32:21.960Z,39.70
2023-01-30T02:33:21.775Z,35.00
2023-01-30T02:34:21.754Z,37.80
2023-01-30T02:35:21.775Z,45.20
2023-01-30T02:36:21.726Z,44.10
2023-01-30T02:37:21.734Z,36.00
2023-01-30T02:38:21.742Z,36.60
2023-01-30T02:39:21.878Z,36.10
2023-01-30T02:40:21.673Z,39.70
2023-01-30T02:41:21.703Z,41.40
2023-01-30T02:42:21.652Z,37.00
2023-01-30T02:43:21.643Z,45.90
2023-01-30T02:44:21.804Z,39.30
2023-01-30T02:45:21.621Z,38.60
2023-01-30T02:46:21.624Z,40.90
2023-01-30T02:47:21.619Z,39.50
2023-01-30T02:48:21.579Z,38.60
2023-01-30T02:49:21.801Z,38.00
2023-01-30T02:50:21.553Z,44.50
2023-01-30T02:51:21.550Z,37.10
2023-01-30T02:52:21.523Z,34.80
2023-01-30T02:53:21.525Z,44.30
2023-01-30T02:54:21.522Z,46.70
2023-01-30T02:55:21.688Z,35.90
2023-01-30T02:56:21.490Z,35.60
2023-01-30T02:57:21.473Z,39.50
2023-01-30T02:58:21.456Z,33.60
2023-01-30T02:59:21.439Z,38.00
2023-01-30T03:00:21.599Z,37.40
2023-01-30T03:01:21.454Z,43.30
2023-01-30T03:02:21.448Z,40.50
2023-01-30T03:03:21.419Z,38.10
2023-01-30T03:04:21.368Z,36.00
2023-01-30T03:05:21.385Z,34.90
2023-01-30T03:06:21.346Z,36.90
2023-01-30T03:07:21.339Z,38.80
2023-01-30T03:08:21.326Z,32.20
2023-01-30T03:09:21.308Z,34.30
2023-01-30T03:10:21.478Z,37.00
2023-01-30T03:11:21.285Z,32.80
2023-01-30T03:12:21.275Z,38.80
2023-01-30T03:13:21.275Z,36.60
2023-01-30T03:14:21.247Z,36.80
2023-01-30T03:15:21.234Z,38.10
2023-01-30T03:16:21.413Z,40.40
2023-01-30T03:17:21.387Z,40.00
2023-01-30T03:18:21.197Z,33.70
2023-01-30T03:19:21.174Z,31.20
2023-01-30T03:20:21.172Z,39.00
2023-01-30T03:21:21.161Z,31.90
2023-01-30T03:22:21.893Z,31.20
2023-01-30T03:23:21.132Z,40.10
2023-01-30T03:24:21.115Z,41.50
2023-01-30T03:25:21.099Z,34.00
2023-01-30T03:26:21.170Z,34.50
2023-01-30T03:27:21.270Z,33.30
2023-01-30T03:28:21.250Z,35.40
2023-01-30T03:29:21.049Z,33.80
2023-01-30T03:30:21.050Z,36.80
2023-01-30T03:31:21.145Z,34.60
2023-01-30T03:32:21.019Z,33.50
2023-01-30T03:33:21.169Z,34.30
2023-01-30T03:34:21.158Z,34.10
2023-01-30T03:35:20.980Z,34.40
2023-01-30T03:36:20.958Z,38.60
2023-01-30T03:37:20.989Z,35.50
2023-01-30T03:38:20.937Z,35.90
2023-01-30T03:39:20.937Z,36.10
2023-01-30T03:40:21.090Z,33.00
2023-01-30T03:41:20.898Z,35.90
2023-01-30T03:42:20.897Z,33.80
2023-01-30T03:43:20.884Z,35.90
2023-01-30T03:44:20.876Z,34.60
2023-01-30T03:45:20.856Z,36.40
2023-01-30T03:46:20.926Z,32.50
2023-01-30T03:47:20.833Z,37.60
2023-01-30T03:48:20.813Z,32.30
2023-01-30T03:49:20.844Z,35.50
2023-01-30T03:50:20.959Z,32.30
2023-01-30T03:51:20.777Z,36.10
2023-01-30T03:52:20.761Z,36.80
2023-01-30T03:53:20.745Z,41.50
2023-01-30T03:54:20.725Z,30.50
2023-01-30T03:55:21.063Z,31.20
2023-01-30T03:56:20.760Z,37.70
2023-01-30T03:57:20.872Z,36.10
2023-01-30T03:58:20.672Z,39.10
2023-01-30T03:59:20.681Z,35.20
2023-01-30T04:00:20.663Z,35.80
2023-01-30T04:01:20.941Z,40.40
2023-01-30T04:02:20.689Z,36.60
2023-01-30T04:03:20.612Z,33.10
2023-01-30T04:04:20.604Z,37.00
2023-01-30T04:05:20.799Z,38.30
2023-01-30T04:06:20.600Z,39.90
2023-01-30T04:07:20.745Z,35.50
2023-01-30T04:08:20.549Z,33.80
2023-01-30T04:09:20.540Z,32.00
2023-01-30T04:10:20.527Z,39.70
2023-01-30T04:11:20.522Z,29.10
2023-01-30T04:12:20.733Z,36.90
2023-01-30T04:13:20.493Z,36.90
2023-01-30T04:14:20.484Z,37.20
2023-01-30T04:15:20.711Z,34.20
2023-01-30T04:16:20.527Z,33.00
2023-01-30T04:17:20.623Z,35.10
2023-01-30T04:18:20.461Z,36.90
2023-01-30T04:19:20.418Z,37.50
2023-01-30T04:20:20.397Z,35.30
2023-01-30T04:21:20.416Z,33.90
2023-01-30T04:22:20.547Z,39.60
2023-01-30T04:23:20.368Z,33.40
2023-01-30T04:24:20.356Z,34.80
2023-01-30T04:25:20.702Z,31.90
2023-01-30T04:26:20.360Z,33.30
2023-01-30T04:27:20.497Z,30.70
2023-01-30T04:28:20.295Z,33.10
2023-01-30T04:29:20.288Z,41.30
2023-01-30T04:30:20.306Z,30.30
2023-01-30T04:31:20.295Z,29.80
2023-01-30T04:32:20.425Z,34.30
2023-01-30T04:33:20.247Z,36.90
2023-01-30T04:34:20.229Z,30.40
2023-01-30T04:35:20.400Z,32.30
2023-01-30T04:36:20.191Z,33.90
2023-01-30T04:37:20.398Z,34.00
2023-01-30T04:38:20.196Z,31.70
2023-01-30T04:39:21.268Z,29.10
2023-01-30T04:40:20.175Z,33.70
2023-01-30T04:41:20.143Z,30.20
2023-01-30T04:42:20.294Z,32.00
2023-01-30T04:43:20.103Z,30.10
2023-01-30T04:44:20.091Z,29.40
2023-01-30T04:45:20.302Z,29.20
2023-01-30T04:46:20.068Z,34.20
2023-01-30T04:47:20.288Z,29.00
2023-01-30T04:48:20.041Z,28.90
2023-01-30T04:49:20.031Z,27.70
2023-01-30T04:50:20.010Z,32.00
2023-01-30T04:51:20.007Z,30.80
2023-01-30T04:52:19.989Z,30.10
2023-01-30T04:53:19.990Z,34.40
2023-01-30T04:54:19.969Z,25.80
2023-01-30T04:55:20.225Z,25.80
2023-01-30T04:56:19.929Z,31.60
2023-01-30T04:57:19.949Z,33.80
2023-01-30T04:58:20.110Z,27.50
2023-01-30T04:59:19.899Z,34.90
2023-01-30T05:00:19.886Z,27.40
2023-01-30T05:01:19.887Z,29.90
2023-01-30T05:02:21.807Z,29.30
2023-01-30T05:03:20.037Z,27.70
2023-01-30T05:04:19.855Z,26.50
2023-01-30T05:05:20.134Z,27.90
2023-01-30T05:06:19.816Z,27.00
2023-01-30T05:07:19.805Z,28.00
2023-01-30T05:08:19.975Z,26.50
2023-01-30T05:09:19.778Z,28.00
2023-01-30T05:10:19.767Z,27.80
2023-01-30T05:11:19.756Z,27.20
2023-01-30T05:12:19.738Z,29.00
2023-01-30T05:13:19.718Z,25.90
2023-01-30T05:14:19.914Z,26.30
2023-01-30T05:15:20.237Z,29.20
2023-01-30T05:16:19.696Z,22.90
2023-01-30T05:17:19.686Z,27.40
2023-01-30T05:18:19.987Z,25.40
2023-01-30T05:19:19.654Z,24.40
2023-01-30T05:20:19.642Z,29.10
2023-01-30T05:21:19.793Z,20.50
2023-01-30T05:22:19.613Z,23.50
2023-01-30T05:23:19.593Z,31.30
2023-01-30T05:24:19.624Z,25.20
2023-01-30T05:25:19.891Z,22.80
2023-01-30T05:26:19.767Z,25.70
2023-01-30T05:27:19.555Z,26.70
2023-01-30T05:28:19.540Z,27.80
2023-01-30T05:29:19.523Z,20.90
2023-01-30T05:30:19.871Z,28.80
2023-01-30T05:31:19.565Z,23.00
2023-01-30T05:32:19.484Z,26.90
2023-01-30T05:33:19.471Z,30.30
2023-01-30T05:34:19.469Z,23.10
2023-01-30T05:35:19.959Z,26.30
2023-01-30T05:36:19.444Z,23.40
2023-01-30T05:37:19.411Z,23.20
2023-01-30T05:38:19.612Z,22.40
2023-01-30T05:39:19.399Z,23.40
2023-01-30T05:40:19.423Z,24.70
2023-01-30T05:41:19.379Z,25.80
2023-01-30T05:42:19.367Z,23.40
2023-01-30T05:43:19.367Z,23.50
2023-01-30T05:44:19.327Z,28.20
2023-01-30T05:45:19.599Z,25.00
2023-01-30T05:46:19.355Z,24.70
2023-01-30T05:47:19.407Z,26.30
2023-01-30T05:48:19.280Z,22.10
2023-01-30T05:49:19.276Z,24.10
2023-01-30T05:50:19.247Z,24.00
2023-01-30T05:51:19.238Z,20.30
2023-01-30T05:52:19.243Z,21.60
2023-01-30T05:53:19.227Z,22.90
2023-01-30T05:54:19.236Z,24.80
2023-01-30T05:55:19.451Z,27.50
2023-01-30T05:56:19.163Z,22.10
2023-01-30T05:57:19.173Z,25.10
2023-01-30T05:58:19.151Z,27.10
2023-01-30T05:59:19.303Z,23.70
2023-01-30T06:00:19.156Z,29.00
2023-01-30T06:01:19.112Z,26.80
2023-01-30T06:02:19.103Z,25.80
2023-01-30T06:03:19.097Z,26.20
2023-01-30T06:04:19.242Z,24.70
2023-01-30T06:05:19.494Z,24.50
2023-01-30T06:06:19.052Z,29.10
2023-01-30T06:07:19.032Z,30.60
2023-01-30T06:08:19.064Z,28.70
2023-01-30T06:09:19.031Z,26.80
2023-01-30T06:10:19.015Z,30.50
2023-01-30T06:11:18.984Z,25.50
2023-01-30T06:12:18.982Z,24.10
2023-01-30T06:13:18.970Z,25.80
2023-01-30T06:14:18.957Z,26.80
2023-01-30T06:15:19.386Z,30.40
2023-01-30T06:16:18.945Z,26.40
2023-01-30T06:17:18.912Z,35.70
2023-01-30T06:18:18.907Z,29.50
2023-01-30T06:19:18.875Z,26.30
2023-01-30T06:20:19.040Z,32.60
2023-01-30T06:21:18.859Z,29.20
2023-01-30T06:22:18.849Z,26.30
2023-01-30T06:23:18.818Z,32.20
2023-01-30T06:24:18.818Z,31.10
2023-01-30T06:25:19.365Z,27.40
2023-01-30T06:26:18.835Z,30.30
2023-01-30T06:27:18.796Z,27.50
2023-01-30T06:28:18.787Z,31.40
2023-01-30T06:29:18.748Z,31.30
2023-01-30T06:30:18.755Z,27.40
2023-01-30T06:31:18.767Z,25.90
2023-01-30T06:32:18.906Z,33.70
2023-01-30T06:33:18.698Z,33.60
2023-01-30T06:34:18.709Z,33.60
2023-01-30T06:35:19.170Z,28.20
2023-01-30T06:36:18.677Z,32.70
2023-01-30T06:37:18.823Z,26.80
2023-01-30T06:38:18.812Z,30.60
2023-01-30T06:39:18.675Z,29.60
2023-01-30T06:40:18.626Z,25.70
2023-01-30T06:41:18.595Z,28.20
2023-01-30T06:42:18.583Z,28.70
2023-01-30T06:43:18.603Z,29.30
2023-01-30T06:44:18.573Z,28.00
2023-01-30T06:45:18.822Z,30.70
2023-01-30T06:46:18.621Z,28.60
2023-01-30T06:47:18.524Z,27.70
2023-01-30T06:48:18.506Z,25.60
2023-01-30T06:49:18.674Z,24.80
2023-01-30T06:50:18.481Z,32.00
2023-01-30T06:51:18.470Z,33.00
2023-01-30T06:52:18.453Z,30.10
2023-01-30T06:53:18.459Z,26.90
2023-01-30T06:54:18.610Z,29.50
2023-01-30T06:55:18.737Z,27.70
2023-01-30T06:56:18.451Z,28.00
2023-01-30T06:57:18.393Z,28.30
2023-01-30T06:58:18.390Z,28.90
2023-01-30T06:59:18.549Z,27.10
2023-01-30T07:00:18.357Z,26.90
2023-01-30T07:01:18.400Z,27.90
2023-01-30T07:02:18.343Z,33.60
2023-01-30T07:03:18.326Z,28.90
2023-01-30T07:04:18.501Z,26.70
2023-01-30T07:05:18.663Z,31.10
2023-01-30T07:06:18.277Z,27.60
2023-01-30T07:07:18.290Z,27.40
2023-01-30T07:08:18.249Z,25.20
2023-01-30T07:09:18.239Z,24.80
2023-01-30T07:10:18.405Z,26.20
2023-01-30T07:11:18.209Z,28.80
2023-01-30T07:12:18.191Z,27.50
2023-01-30T07:13:18.191Z,27.10
2023-01-30T07:14:18.207Z,31.30
2023-01-30T07:15:18.647Z,26.50
2023-01-30T07:16:18.348Z,26.00
2023-01-30T07:17:18.145Z,27.40
2023-01-30T07:18:18.138Z,25.10
2023-01-30T07:19:18.105Z,24.30
2023-01-30T07:20:18.099Z,22.30
2023-01-30T07:21:18.088Z,25.70
2023-01-30T07:22:18.075Z,24.20
2023-01-30T07:23:18.103Z,25.30
2023-01-30T07:24:18.054Z,26.20
2023-01-30T07:25:18.285Z,30.60
2023-01-30T07:26:18.041Z,25.50
2023-01-30T07:27:18.015Z,22.80
2023-01-30T07:28:18.013Z,25.50
2023-01-30T07:29:17.974Z,21.60
2023-01-30T07:30:18.086Z,24.80
2023-01-30T07:31:17.996Z,24.40
2023-01-30T07:32:17.933Z,25.00
2023-01-30T07:33:17.933Z,23.80
2023-01-30T07:34:17.932Z,26.00
2023-01-30T07:35:17.912Z,22.10
2023-01-30T07:36:18.060Z,28.30
2023-01-30T07:37:18.043Z,26.40
2023-01-30T07:38:17.861Z,20.90
2023-01-30T07:39:17.851Z,23.40
2023-01-30T07:40:17.845Z,23.80
2023-01-30T07:41:17.820Z,21.00
2023-01-30T07:42:17.822Z,21.50
2023-01-30T07:43:17.799Z,18.50
2023-01-30T07:44:17.794Z,21.80
2023-01-30T07:45:18.422Z,18.00
2023-01-30T07:46:17.761Z,22.10
2023-01-30T07:47:17.752Z,18.10
2023-01-30T07:48:17.742Z,21.00
2023-01-30T07:49:17.749Z,22.30
2023-01-30T07:50:18.163Z,22.30
2023-01-30T07:51:17.689Z,18.90
2023-01-30T07:52:17.689Z,23.20
2023-01-30T07:53:17.700Z,18.70
2023-01-30T07:54:17.670Z,22.70
2023-01-30T07:55:17.931Z,20.00
2023-01-30T07:56:17.628Z,26.60
2023-01-30T07:57:17.618Z,17.60
2023-01-30T07:58:17.611Z,16.70
2023-01-30T07:59:17.613Z,15.10
2023-01-30T08:00:17.947Z,26.70
2023-01-30T08:01:17.684Z,21.40
2023-01-30T08:02:17.558Z,15.30
2023-01-30T08:03:17.572Z,21.40
2023-01-30T08:04:18.130Z,17.80
2023-01-30T08:05:17.526Z,11.70
2023-01-30T08:06:17.587Z,12.60
2023-01-30T08:07:17.495Z,11.80
2023-01-30T08:08:17.488Z,17.00
2023-01-30T08:09:17.466Z,14.80
2023-01-30T08:10:17.792Z,14.80
2023-01-30T08:11:17.441Z,13.20
2023-01-30T08:12:17.594Z,14.50
2023-01-30T08:13:17.404Z,12.40
2023-01-30T08:14:17.575Z,16.70
2023-01-30T08:15:17.394Z,12.30
2023-01-30T08:16:17.467Z,18.10
2023-01-30T08:17:17.362Z,12.60
2023-01-30T08:18:17.342Z,14.00
2023-01-30T08:19:17.341Z,14.00
2023-01-30T08:20:17.739Z,18.50
2023-01-30T08:21:17.320Z,18.60
2023-01-30T08:22:17.332Z,17.00
2023-01-30T08:23:17.463Z,18.70
2023-01-30T08:24:17.298Z,15.50
2023-01-30T08:25:17.273Z,15.60
2023-01-30T08:26:17.276Z,15.10
2023-01-30T08:27:17.233Z,18.20
2023-01-30T08:28:17.281Z,13.60
2023-01-30T08:29:17.213Z,17.00
2023-01-30T08:30:17.805Z,19.60
2023-01-30T08:31:17.256Z,12.30
2023-01-30T08:32:17.169Z,17.10
2023-01-30T08:33:17.150Z,18.60
2023-01-30T08:34:17.136Z,11.60
2023-01-30T08:35:17.301Z,12.30
2023-01-30T08:36:17.125Z,13.60
2023-01-30T08:37:17.122Z,10.50
2023-01-30T08:38:17.299Z,21.90
2023-01-30T08:39:17.091Z,16.20
2023-01-30T08:40:17.330Z,24.80
2023-01-30T08:41:17.047Z,18.90
2023-01-30T08:42:17.026Z,12.10
2023-01-30T08:43:17.208Z,9.60
2023-01-30T08:44:17.018Z,15.90
2023-01-30T08:45:17.011Z,14.80
2023-01-30T08:46:17.019Z,14.30
2023-01-30T08:47:16.978Z,12.50
2023-01-30T08:48:16.955Z,18.60
2023-01-30T08:49:16.959Z,18.00
2023-01-30T08:50:17.505Z,16.00
2023-01-30T08:51:16.938Z,15.50
2023-01-30T08:52:16.915Z,22.70
2023-01-30T08:53:16.895Z,18.10
2023-01-30T08:54:17.080Z,19.00
2023-01-30T08:55:16.877Z,15.70
2023-01-30T08:56:16.859Z,12.20
2023-01-30T08:57:16.847Z,18.60
2023-01-30T08:58:16.823Z,10.20
2023-01-30T08:59:16.859Z,15.60
2023-01-30T09:00:17.173Z,11.10
2023-01-30T09:01:16.998Z,11.60
2023-01-30T09:02:16.778Z,11.40
2023-01-30T09:03:16.771Z,20.20
2023-01-30T09:04:16.753Z,12.30
2023-01-30T09:05:16.760Z,12.10
2023-01-30T09:06:16.752Z,10.20
2023-01-30T09:07:16.749Z,10.70
2023-01-30T09:08:16.714Z,14.20
2023-01-30T09:09:16.694Z,15.70
2023-01-30T09:10:16.835Z,19.10
2023-01-30T09:11:16.660Z,15.30
2023-01-30T09:12:16.818Z,17.20
2023-01-30T09:13:16.652Z,8.50
2023-01-30T09:14:16.633Z,14.30
2023-01-30T09:15:16.649Z,9.80
2023-01-30T09:16:16.634Z,16.30
2023-01-30T09:17:16.758Z,13.80
2023-01-30T09:18:16.591Z,9.80
2023-01-30T09:19:16.555Z,9.40
2023-01-30T09:20:16.939Z,14.00
2023-01-30T09:21:16.539Z,9.80
2023-01-30T09:22:16.565Z,8.70
2023-01-30T09:23:16.497Z,11.30
2023-01-30T09:24:16.497Z,12.30
2023-01-30T09:25:16.476Z,14.60
2023-01-30T09:26:16.565Z,9.00
2023-01-30T09:27:16.448Z,14.80
2023-01-30T09:28:16.615Z,11.50
2023-01-30T09:29:16.417Z,9.80
2023-01-30T09:30:16.592Z,12.30
2023-01-30T09:31:16.503Z,13.10
2023-01-30T09:32:16.395Z,12.80
2023-01-30T09:33:16.547Z,15.70
2023-01-30T09:34:16.546Z,13.80
2023-01-30T09:35:16.374Z,12.60
2023-01-30T09:36:16.342Z,13.40
2023-01-30T09:37:16.327Z,16.40
2023-01-30T09:38:16.319Z,17.20
2023-01-30T09:39:16.312Z,18.30
2023-01-30T09:40:16.595Z,8.70
2023-01-30T09:41:16.274Z,12.30
2023-01-30T09:42:16.262Z,8.00
2023-01-30T09:43:16.272Z,20.20
2023-01-30T09:44:16.433Z,12.90
2023-01-30T09:45:16.221Z,8.80
2023-01-30T09:46:16.361Z,15.60
2023-01-30T09:47:16.193Z,16.90
2023-01-30T09:48:18.037Z,12.50
2023-01-30T09:49:16.180Z,14.00
2023-01-30T09:50:16.705Z,17.00
2023-01-30T09:51:16.142Z,12.60
2023-01-30T09:52:16.131Z,12.30
2023-01-30T09:53:16.159Z,9.70
2023-01-30T09:54:16.098Z,13.90
2023-01-30T09:55:16.109Z,15.90
2023-01-30T09:56:16.077Z,16.80
2023-01-30T09:57:21.236Z,17.60
2023-01-30T09:58:17.048Z,12.50
2023-01-30T09:59:16.048Z,10.50
2023-01-30T10:00:16.289Z,12.30
2023-01-30T10:01:16.020Z,12.40
2023-01-30T10:02:15.989Z,15.30
2023-01-30T10:03:16.028Z,12.20
2023-01-30T10:04:16.006Z,11.40
2023-01-30T10:05:16.026Z,16.30
2023-01-30T10:06:15.948Z,10.90
2023-01-30T10:07:16.118Z,20.30
2023-01-30T10:08:15.925Z,19.50
2023-01-30T10:09:15.908Z,17.30
2023-01-30T10:10:16.172Z,12.50
2023-01-30T10:11:16.048Z,13.30
2023-01-30T10:12:15.875Z,13.00
2023-01-30T10:13:15.866Z,18.90
2023-01-30T10:14:15.851Z,17.40
2023-01-30T10:15:15.846Z,13.30
2023-01-30T10:16:16.051Z,18.40
2023-01-30T10:17:15.844Z,17.50
2023-01-30T10:18:15.782Z,11.90
2023-01-30T10:19:20.543Z,17.00
2023-01-30T10:20:16.778Z,18.50
2023-01-30T10:21:15.772Z,12.50
2023-01-30T10:22:15.763Z,16.00
2023-01-30T10:23:15.724Z,11.60
2023-01-30T10:24:15.880Z,12.70
2023-01-30T10:25:15.709Z,23.50
2023-01-30T10:26:15.916Z,13.10
2023-01-30T10:27:15.675Z,19.10
2023-01-30T10:28:15.663Z,15.80
2023-01-30T10:29:15.667Z,6.60
2023-01-30T10:30:15.683Z,14.40
2023-01-30T10:31:15.713Z,11.90
2023-01-30T10:32:15.779Z,18.50
2023-01-30T10:33:15.604Z,10.30
2023-01-30T10:34:15.613Z,10.20
2023-01-30T10:35:15.571Z,16.50
2023-01-30T10:36:15.560Z,9.70
2023-01-30T10:37:15.730Z,19.50
2023-01-30T10:38:15.527Z,12.10
2023-01-30T10:39:15.528Z,18.30
2023-01-30T10:40:15.847Z,17.20
2023-01-30T10:41:15.501Z,14.70
2023-01-30T10:42:15.698Z,13.80
2023-01-30T10:43:15.485Z,17.10
2023-01-30T10:44:15.450Z,18.90
2023-01-30T10:45:15.440Z,15.50
2023-01-30T10:46:15.537Z,21.80
2023-01-30T10:47:16.335Z,18.30
2023-01-30T10:48:15.425Z,21.40
2023-01-30T10:49:15.414Z,25.20
2023-01-30T10:50:15.724Z,15.60
2023-01-30T10:51:15.366Z,13.90
2023-01-30T10:52:15.559Z,17.30
2023-01-30T10:53:15.348Z,19.50
2023-01-30T10:54:16.949Z,27.40
2023-01-30T10:55:18.113Z,15.20
2023-01-30T10:56:15.295Z,11.40
2023-01-30T10:57:15.309Z,23.60
2023-01-30T10:58:15.444Z,18.30
2023-01-30T10:59:15.262Z,14.80
2023-01-30T11:00:15.476Z,16.50
2023-01-30T11:01:15.250Z,13.10
2023-01-30T11:02:15.226Z,15.00
2023-01-30T11:03:15.439Z,12.90
2023-01-30T11:04:15.193Z,15.30
2023-01-30T11:05:15.232Z,16.40
2023-01-30T11:06:15.181Z,15.50
2023-01-30T11:07:15.275Z,22.00
2023-01-30T11:08:15.224Z,8.80
2023-01-30T11:09:15.264Z,11.00
2023-01-30T11:10:15.211Z,15.10
2023-01-30T11:11:15.228Z,12.20
2023-01-30T11:12:15.099Z,12.70
2023-01-30T11:13:15.082Z,14.80
2023-01-30T11:14:15.232Z,10.20
2023-01-30T11:15:15.113Z,20.00
2023-01-30T11:16:15.101Z,16.10
2023-01-30T11:17:15.020Z,11.30
2023-01-30T11:19:05.234Z,15.30
2023-01-30T11:19:20.255Z,11.80
2023-01-30T11:20:16.495Z,12.50
2023-01-30T11:21:14.974Z,11.90
2023-01-30T11:22:15.268Z,12.90
2023-01-30T11:23:14.948Z,13.80
2023-01-30T11:24:14.935Z,13.60
2023-01-30T11:25:15.199Z,20.30
2023-01-30T11:26:14.967Z,16.00
2023-01-30T11:27:14.900Z,11.40
2023-01-30T11:28:14.887Z,14.20
2023-01-30T11:29:14.877Z,11.60
2023-01-30T11:30:15.069Z,14.40
2023-01-30T11:31:14.920Z,22.20
2023-01-30T11:32:14.873Z,18.30
2023-01-30T11:33:14.816Z,14.20
2023-01-30T11:34:14.807Z,16.70
2023-01-30T11:35:15.084Z,13.70
2023-01-30T11:36:14.786Z,8.20
2023-01-30T11:37:14.767Z,17.20
2023-01-30T11:38:14.745Z,16.40
2023-01-30T11:39:14.768Z,15.50
2023-01-30T11:40:14.919Z,12.00
2023-01-30T11:41:14.725Z,11.10
2023-01-30T11:42:14.704Z,13.10
2023-01-30T11:43:14.702Z,15.00
2023-01-30T11:44:14.677Z,15.70
2023-01-30T11:45:18.073Z,9.30
2023-01-30T11:46:14.876Z,16.50
2023-01-30T11:47:14.634Z,16.30
2023-01-30T11:48:28.680Z,17.70
2023-01-30T11:49:48.190Z,13.30
2023-01-30T11:50:15.622Z,13.80
2023-01-30T11:51:14.582Z,18.00
2023-01-30T11:52:14.584Z,16.80
2023-01-30T11:53:14.563Z,18.10
2023-01-30T11:54:14.542Z,13.80
2023-01-30T11:55:14.537Z,10.60
2023-01-30T11:56:14.699Z,14.50
2023-01-30T11:57:14.708Z,12.30
2023-01-30T11:58:14.499Z,14.10
2023-01-30T11:59:14.485Z,18.40
2023-01-30T12:00:14.472Z,8.70
2023-01-30T12:01:14.478Z,10.90
2023-01-30T12:02:14.492Z,15.00
2023-01-30T12:03:14.474Z,11.80
2023-01-30T12:04:14.418Z,18.10
2023-01-30T12:05:14.412Z,15.00
2023-01-30T12:06:14.406Z,13.70
2023-01-30T12:07:14.383Z,11.90
2023-01-30T12:08:14.553Z,18.10
2023-01-30T12:09:14.368Z,14.30
2023-01-30T12:10:14.398Z,14.10
2023-01-30T12:11:14.347Z,9.90
2023-01-30T12:12:14.318Z,17.10
2023-01-30T12:13:14.496Z,12.40
2023-01-30T12:14:14.456Z,14.70
2023-01-30T12:15:14.283Z,10.50
2023-01-30T12:16:14.303Z,7.50
2023-01-30T12:17:14.256Z,14.40
2023-01-30T12:18:14.378Z,16.30
2023-01-30T12:19:14.238Z,11.00
2023-01-30T12:20:14.237Z,9.90
2023-01-30T12:21:14.376Z,13.10
2023-01-30T12:22:14.186Z,9.40
2023-01-30T12:23:14.234Z,10.30
2023-01-30T12:24:14.336Z,11.10
2023-01-30T12:25:14.147Z,11.40
2023-01-30T12:26:14.167Z,16.00
2023-01-30T12:27:14.128Z,14.60
2023-01-30T12:28:14.106Z,16.20
2023-01-30T12:29:14.118Z,17.30
2023-01-30T12:30:14.084Z,11.20
2023-01-30T12:31:14.074Z,13.80
2023-01-30T12:32:14.053Z,14.30
2023-01-30T12:33:14.064Z,7.30
2023-01-30T12:34:14.205Z,13.20
2023-01-30T12:35:14.015Z,16.50
2023-01-30T12:36:14.016Z,16.90
2023-01-30T12:37:13.998Z,11.90
2023-01-30T12:38:14.152Z,13.00
2023-01-30T12:39:13.973Z,15.80
2023-01-30T12:40:14.031Z,13.20
2023-01-30T12:41:13.953Z,9.00
2023-01-30T12:43:14.138Z,9.10
2023-01-30T12:44:13.912Z,12.30
2023-01-30T12:45:13.892Z,12.70
2023-01-30T12:46:13.919Z,8.00
2023-01-30T12:47:13.874Z,9.10
2023-01-30T12:48:13.886Z,19.10
2023-01-30T12:49:13.839Z,7.50
2023-01-30T12:50:13.857Z,16.70
2023-01-30T12:51:13.856Z,11.50
2023-01-30T12:52:13.814Z,12.00
2023-01-30T12:53:13.788Z,7.80
2023-01-30T12:54:13.790Z,13.10